sensor_id;sensor_type;location;lat;lon;timestamp;pressure;altitude;pressure_sealevel;temperature;humidity
80927;BME280;70385;44.538;18.532;2023-12-20T00:01:46;99521.47;;;-2.80;100.00
80927;BME280;70385;44.538;18.532;2023-12-20T00:04:11;99523.06;;;-2.90;100.00
80927;BME280;70385;44.538;18.532;2023-12-20T00:06:37;99524.84;;;-2.86;100.00
80927;BME280;70385;44.538;18.532;2023-12-20T00:09:05;99523.09;;;-2.88;100.00
80927;BME280;70385;44.538;18.532;2023-12-20T00:11:34;99526.50;;;-2.88;100.00
80927;BME280;70385;44.538;18.532;2023-12-20T00:14:00;99519.69;;;-2.89;100.00
80927;BME280;70385;44.538;18.532;2023-12-20T00:16:25;99521.44;;;-2.85;100.00
80927;BME280;70385;44.538;18.532;2023-12-20T00:18:51;99522.31;;;-2.80;100.00
80927;BME280;70385;44.538;18.532;2023-12-20T00:21:18;99517.97;;;-2.88;100.00
80927;BME280;70385;44.538;18.532;2023-12-20T00:23:46;99516.16;;;-2.97;100.00
80927;BME280;70385;44.538;18.532;2023-12-20T00:26:12;99526.34;;;-3.00;100.00
80927;BME280;70385;44.538;18.532;2023-12-20T00:28:38;99516.94;;;-3.02;100.00
80927;BME280;70385;44.538;18.532;2023-12-20T00:31:04;99517.81;;;-3.02;100.00
80927;BME280;70385;44.538;18.532;2023-12-20T00:33:30;99512.56;;;-3.10;100.00
80927;BME280;70385;44.538;18.532;2023-12-20T00:35:55;99509.34;;;-2.96;100.00
80927;BME280;70385;44.538;18.532;2023-12-20T00:38:22;99507.41;;;-3.13;100.00
80927;BME280;70385;44.538;18.532;2023-12-20T00:40:48;99506.59;;;-3.12;100.00
80927;BME280;70385;44.538;18.532;2023-12-20T00:43:15;99504.88;;;-3.11;100.00
80927;BME280;70385;44.538;18.532;2023-12-20T00:45:41;99502.31;;;-3.11;100.00
80927;BME280;70385;44.538;18.532;2023-12-20T00:48:08;99500.56;;;-3.15;100.00
80927;BME280;70385;44.538;18.532;2023-12-20T00:50:34;99496.25;;;-3.19;100.00
80927;BME280;70385;44.538;18.532;2023-12-20T00:53:00;99504.00;;;-3.13;100.00
80927;BME280;70385;44.538;18.532;2023-12-20T00:55:26;99473.19;;;-3.22;100.00
80927;BME280;70385;44.538;18.532;2023-12-20T00:57:52;99493.75;;;-3.15;100.00
80927;BME280;70385;44.538;18.532;2023-12-20T01:00:19;99483.53;;;-3.13;100.00
80927;BME280;70385;44.538;18.532;2023-12-20T01:02:47;99487.78;;;-3.14;100.00
80927;BME280;70385;44.538;18.532;2023-12-20T01:05:16;99481.75;;;-3.20;100.00
80927;BME280;70385;44.538;18.532;2023-12-20T01:07:46;99478.28;;;-3.25;100.00
80927;BME280;70385;44.538;18.532;2023-12-20T01:10:12;99486.84;;;-3.23;100.00
80927;BME280;70385;44.538;18.532;2023-12-20T01:12:37;99483.34;;;-3.28;100.00
80927;BME280;70385;44.538;18.532;2023-12-20T01:15:03;99479.88;;;-3.33;100.00
80927;BME280;70385;44.538;18.532;2023-12-20T01:17:29;99474.75;;;-3.33;100.00
80927;BME280;70385;44.538;18.532;2023-12-20T01:19:57;99469.63;;;-3.33;100.00
80927;BME280;70385;44.538;18.532;2023-12-20T01:22:23;99466.19;;;-3.36;100.00
80927;BME280;70385;44.538;18.532;2023-12-20T01:24:49;99462.81;;;-3.34;100.00
80927;BME280;70385;44.538;18.532;2023-12-20T01:27:15;99455.91;;;-3.40;100.00
80927;BME280;70385;44.538;18.532;2023-12-20T01:29:41;99450.69;;;-3.48;100.00
80927;BME280;70385;44.538;18.532;2023-12-20T01:32:06;99444.94;;;-3.31;100.00
80927;BME280;70385;44.538;18.532;2023-12-20T01:34:32;99448.31;;;-3.32;100.00
80927;BME280;70385;44.538;18.532;2023-12-20T01:36:58;99438.84;;;-3.41;100.00
80927;BME280;70385;44.538;18.532;2023-12-20T01:39:25;99444.78;;;-3.44;100.00
80927;BME280;70385;44.538;18.532;2023-12-20T01:41:51;99438.91;;;-3.37;100.00
80927;BME280;70385;44.538;18.532;2023-12-20T01:44:19;99440.53;;;-3.45;100.00
80927;BME280;70385;44.538;18.532;2023-12-20T01:46:45;99440.41;;;-3.52;100.00
80927;BME280;70385;44.538;18.532;2023-12-20T01:49:12;99423.41;;;-3.47;100.00
80927;BME280;70385;44.538;18.532;2023-12-20T01:51:38;99426.69;;;-3.59;100.00
80927;BME280;70385;44.538;18.532;2023-12-20T01:54:04;99424.84;;;-3.69;100.00
80927;BME280;70385;44.538;18.532;2023-12-20T01:56:31;99430.91;;;-3.64;100.00
80927;BME280;70385;44.538;18.532;2023-12-20T01:58:58;99416.63;;;-3.47;100.00
80927;BME280;70385;44.538;18.532;2023-12-20T02:01:24;99418.09;;;-3.64;100.00
80927;BME280;70385;44.538;18.532;2023-12-20T02:03:51;99408.75;;;-3.63;100.00
80927;BME280;70385;44.538;18.532;2023-12-20T02:06:18;99409.59;;;-3.63;100.00
80927;BME280;70385;44.538;18.532;2023-12-20T02:08:44;99395.94;;;-3.65;100.00
80927;BME280;70385;44.538;18.532;2023-12-20T02:11:10;99397.72;;;-3.58;100.00
80927;BME280;70385;44.538;18.532;2023-12-20T02:13:36;99390.03;;;-3.59;100.00
80927;BME280;70385;44.538;18.532;2023-12-20T02:16:02;99382.47;;;-3.49;100.00
80927;BME280;70385;44.538;18.532;2023-12-20T02:18:29;99375.63;;;-3.50;100.00
80927;BME280;70385;44.538;18.532;2023-12-20T02:20:54;99368.78;;;-3.52;100.00
80927;BME280;70385;44.538;18.532;2023-12-20T02:23:21;99365.34;;;-3.56;100.00
80927;BME280;70385;44.538;18.532;2023-12-20T02:25:47;99357.50;;;-3.68;100.00
80927;BME280;70385;44.538;18.532;2023-12-20T02:28:13;99355.09;;;-3.57;100.00
80927;BME280;70385;44.538;18.532;2023-12-20T02:30:40;99371.50;;;-3.40;100.00
80927;BME280;70385;44.538;18.532;2023-12-20T02:33:08;99353.47;;;-3.51;100.00
80927;BME280;70385;44.538;18.532;2023-12-20T02:35:37;99356.88;;;-3.52;100.00
80927;BME280;70385;44.538;18.532;2023-12-20T02:38:03;99344.00;;;-3.59;100.00
80927;BME280;70385;44.538;18.532;2023-12-20T02:40:32;99350.81;;;-3.60;100.00
80927;BME280;70385;44.538;18.532;2023-12-20T02:42:57;99345.66;;;-3.64;100.00
80927;BME280;70385;44.538;18.532;2023-12-20T02:45:23;99337.16;;;-3.62;100.00
80927;BME280;70385;44.538;18.532;2023-12-20T02:47:49;99331.16;;;-3.64;100.00
80927;BME280;70385;44.538;18.532;2023-12-20T02:50:16;99327.00;;;-3.56;100.00
80927;BME280;70385;44.538;18.532;2023-12-20T02:52:44;99328.69;;;-3.55;100.00
80927;BME280;70385;44.538;18.532;2023-12-20T02:55:11;99325.22;;;-3.61;100.00
80927;BME280;70385;44.538;18.532;2023-12-20T02:57:37;99318.44;;;-3.59;100.00
80927;BME280;70385;44.538;18.532;2023-12-20T03:00:08;99324.25;;;-3.70;100.00
80927;BME280;70385;44.538;18.532;2023-12-20T03:02:36;99317.41;;;-3.72;100.00
80927;BME280;70385;44.538;18.532;2023-12-20T03:05:02;99325.91;;;-3.76;100.00
80927;BME280;70385;44.538;18.532;2023-12-20T03:07:28;99316.59;;;-3.70;100.00
80927;BME280;70385;44.538;18.532;2023-12-20T03:09:54;99313.91;;;-3.83;100.00
80927;BME280;70385;44.538;18.532;2023-12-20T03:12:20;99305.22;;;-3.94;100.00
80927;BME280;70385;44.538;18.532;2023-12-20T03:14:47;99308.59;;;-3.99;100.00
80927;BME280;70385;44.538;18.532;2023-12-20T03:17:16;99309.50;;;-3.93;100.00
80927;BME280;70385;44.538;18.532;2023-12-20T03:19:42;99313.88;;;-3.85;100.00
80927;BME280;70385;44.538;18.532;2023-12-20T03:22:07;99312.09;;;-3.90;100.00
80927;BME280;70385;44.538;18.532;2023-12-20T03:24:33;99307.81;;;-3.91;100.00
80927;BME280;70385;44.538;18.532;2023-12-20T03:26:59;99307.81;;;-3.91;100.00
80927;BME280;70385;44.538;18.532;2023-12-20T03:29:25;99308.63;;;-3.95;100.00
80927;BME280;70385;44.538;18.532;2023-12-20T03:31:50;99300.19;;;-3.88;100.00
80927;BME280;70385;44.538;18.532;2023-12-20T03:34:16;99299.19;;;-4.01;100.00
80927;BME280;70385;44.538;18.532;2023-12-20T03:36:43;99299.22;;;-4.00;100.00
80927;BME280;70385;44.538;18.532;2023-12-20T03:39:09;99292.19;;;-4.16;100.00
80927;BME280;70385;44.538;18.532;2023-12-20T03:41:35;99285.31;;;-4.20;100.00
80927;BME280;70385;44.538;18.532;2023-12-20T03:44:01;99292.13;;;-4.20;100.00
80927;BME280;70385;44.538;18.532;2023-12-20T03:46:27;99284.38;;;-4.25;100.00
80927;BME280;70385;44.538;18.532;2023-12-20T03:48:53;99270.84;;;-4.21;100.00
80927;BME280;70385;44.538;18.532;2023-12-20T03:51:18;99276.94;;;-4.08;100.00
80927;BME280;70385;44.538;18.532;2023-12-20T03:53:44;99275.22;;;-4.09;100.00
80927;BME280;70385;44.538;18.532;2023-12-20T03:56:10;99279.47;;;-4.10;100.00
80927;BME280;70385;44.538;18.532;2023-12-20T03:58:36;99272.06;;;-3.90;100.00
80927;BME280;70385;44.538;18.532;2023-12-20T04:01:02;99273.53;;;-4.09;100.00
80927;BME280;70385;44.538;18.532;2023-12-20T04:03:28;99281.16;;;-4.12;100.00
80927;BME280;70385;44.538;18.532;2023-12-20T04:05:53;99278.78;;;-4.00;100.00
80927;BME280;70385;44.538;18.532;2023-12-20T04:08:20;99271.88;;;-4.05;100.00
80927;BME280;70385;44.538;18.532;2023-12-20T04:10:46;99287.97;;;-4.11;100.00
80927;BME280;70385;44.538;18.532;2023-12-20T04:13:13;99281.97;;;-4.16;100.00
80927;BME280;70385;44.538;18.532;2023-12-20T04:15:40;99277.69;;;-4.17;100.00
80927;BME280;70385;44.538;18.532;2023-12-20T04:18:06;99266.63;;;-4.16;100.00
80927;BME280;70385;44.538;18.532;2023-12-20T04:20:32;99264.00;;;-4.22;100.00
80927;BME280;70385;44.538;18.532;2023-12-20T04:22:58;99258.81;;;-4.28;100.00
80927;BME280;70385;44.538;18.532;2023-12-20T04:25:24;99263.25;;;-4.13;100.00
80927;BME280;70385;44.538;18.532;2023-12-20T04:27:50;99264.13;;;-4.13;100.00
80927;BME280;70385;44.538;18.532;2023-12-20T04:30:17;99251.28;;;-4.17;100.00
80927;BME280;70385;44.538;18.532;2023-12-20T04:32:42;99242.81;;;-4.15;100.00
80927;BME280;70385;44.538;18.532;2023-12-20T04:35:08;99247.06;;;-4.14;100.00
80927;BME280;70385;44.538;18.532;2023-12-20T04:37:34;99248.72;;;-4.19;100.00
80927;BME280;70385;44.538;18.532;2023-12-20T04:40:00;99248.69;;;-4.22;100.00
80927;BME280;70385;44.538;18.532;2023-12-20T04:42:27;99247.84;;;-4.22;100.00
80927;BME280;70385;44.538;18.532;2023-12-20T04:44:54;99247.75;;;-4.27;100.00
80927;BME280;70385;44.538;18.532;2023-12-20T04:47:20;99256.50;;;-4.08;100.00
80927;BME280;70385;44.538;18.532;2023-12-20T04:49:46;99244.34;;;-4.28;100.00
80927;BME280;70385;44.538;18.532;2023-12-20T04:52:12;99255.56;;;-4.15;100.00
80927;BME280;70385;44.538;18.532;2023-12-20T04:54:37;99253.06;;;-4.12;100.00
80927;BME280;70385;44.538;18.532;2023-12-20T04:57:04;99259.75;;;-4.23;100.00
80927;BME280;70385;44.538;18.532;2023-12-20T04:59:30;99246.84;;;-4.31;100.00
80927;BME280;70385;44.538;18.532;2023-12-20T05:01:55;99251.81;;;-4.43;100.00
80927;BME280;70385;44.538;18.532;2023-12-20T05:04:21;99259.56;;;-4.35;100.00
80927;BME280;70385;44.538;18.532;2023-12-20T05:06:47;99249.28;;;-4.43;100.00
80927;BME280;70385;44.538;18.532;2023-12-20T05:09:13;99244.09;;;-4.46;100.00
80927;BME280;70385;44.538;18.532;2023-12-20T05:11:38;99256.84;;;-4.47;100.00
80927;BME280;70385;44.538;18.532;2023-12-20T05:14:04;99237.25;;;-4.50;100.00
80927;BME280;70385;44.538;18.532;2023-12-20T05:16:30;99248.28;;;-4.52;100.00
80927;BME280;70385;44.538;18.532;2023-12-20T05:18:56;99244.09;;;-4.47;100.00
80927;BME280;70385;44.538;18.532;2023-12-20T05:21:22;99233.88;;;-4.47;100.00
80927;BME280;70385;44.538;18.532;2023-12-20T05:23:48;99234.63;;;-4.54;100.00
80927;BME280;70385;44.538;18.532;2023-12-20T05:26:15;99232.97;;;-4.52;100.00
80927;BME280;70385;44.538;18.532;2023-12-20T05:28:41;99242.22;;;-4.61;100.00
80927;BME280;70385;44.538;18.532;2023-12-20T05:31:07;99233.03;;;-4.46;100.00
80927;BME280;70385;44.538;18.532;2023-12-20T05:33:32;99234.84;;;-4.39;100.00
80927;BME280;70385;44.538;18.532;2023-12-20T05:36:01;99224.47;;;-4.51;100.00
80927;BME280;70385;44.538;18.532;2023-12-20T05:38:27;99225.22;;;-4.59;100.00
80927;BME280;70385;44.538;18.532;2023-12-20T05:40:53;99220.91;;;-4.63;100.00
80927;BME280;70385;44.538;18.532;2023-12-20T05:43:18;99218.41;;;-4.60;100.00
80927;BME280;70385;44.538;18.532;2023-12-20T05:45:45;99221.09;;;-4.49;100.00
80927;BME280;70385;44.538;18.532;2023-12-20T05:48:11;99213.38;;;-4.52;100.00
80927;BME280;70385;44.538;18.532;2023-12-20T05:50:37;99212.53;;;-4.52;100.00
80927;BME280;70385;44.538;18.532;2023-12-20T05:53:04;99212.56;;;-4.51;100.00
80927;BME280;70385;44.538;18.532;2023-12-20T05:55:30;99204.13;;;-4.44;100.00
80927;BME280;70385;44.538;18.532;2023-12-20T05:57:56;99213.47;;;-4.46;100.00
80927;BME280;70385;44.538;18.532;2023-12-20T06:00:22;99217.91;;;-4.31;100.00
80927;BME280;70385;44.538;18.532;2023-12-20T06:02:49;99216.31;;;-4.23;100.00
80927;BME280;70385;44.538;18.532;2023-12-20T06:05:17;99214.53;;;-4.27;100.00
80927;BME280;70385;44.538;18.532;2023-12-20T06:07:45;99207.69;;;-4.31;100.00
80927;BME280;70385;44.538;18.532;2023-12-20T06:10:12;99201.66;;;-4.38;100.00
80927;BME280;70385;44.538;18.532;2023-12-20T06:12:39;99211.88;;;-4.38;100.00
80927;BME280;70385;44.538;18.532;2023-12-20T06:15:05;99202.44;;;-4.43;100.00
80927;BME280;70385;44.538;18.532;2023-12-20T06:17:31;99191.31;;;-4.48;100.00
80927;BME280;70385;44.538;18.532;2023-12-20T06:19:57;99198.22;;;-4.40;100.00
80927;BME280;70385;44.538;18.532;2023-12-20T06:22:23;99198.91;;;-4.53;100.00
80927;BME280;70385;44.538;18.532;2023-12-20T06:24:50;99208.25;;;-4.55;100.00
80927;BME280;70385;44.538;18.532;2023-12-20T06:27:16;99204.72;;;-4.63;100.00
80927;BME280;70385;44.538;18.532;2023-12-20T06:29:42;99203.81;;;-4.67;100.00
80927;BME280;70385;44.538;18.532;2023-12-20T06:32:10;99198.75;;;-4.64;100.00
80927;BME280;70385;44.538;18.532;2023-12-20T06:34:36;99204.78;;;-4.62;100.00
80927;BME280;70385;44.538;18.532;2023-12-20T06:37:03;99193.75;;;-4.57;100.00
80927;BME280;70385;44.538;18.532;2023-12-20T06:39:29;99184.41;;;-4.57;100.00
80927;BME280;70385;44.538;18.532;2023-12-20T06:41:56;99192.16;;;-4.46;100.00
80927;BME280;70385;44.538;18.532;2023-12-20T06:44:22;99199.97;;;-4.36;100.00
80927;BME280;70385;44.538;18.532;2023-12-20T06:46:47;99190.63;;;-4.35;100.00
80927;BME280;70385;44.538;18.532;2023-12-20T06:49:13;99194.03;;;-4.33;100.00
80927;BME280;70385;44.538;18.532;2023-12-20T06:51:39;99194.03;;;-4.33;100.00
80927;BME280;70385;44.538;18.532;2023-12-20T06:54:05;99202.59;;;-4.31;100.00
80927;BME280;70385;44.538;18.532;2023-12-20T06:56:31;99203.44;;;-4.29;100.00
80927;BME280;70385;44.538;18.532;2023-12-20T06:58:58;99194.94;;;-4.28;100.00
80927;BME280;70385;44.538;18.532;2023-12-20T07:01:24;99193.28;;;-4.24;100.00
80927;BME280;70385;44.538;18.532;2023-12-20T07:03:49;99182.22;;;-4.25;100.00
80927;BME280;70385;44.538;18.532;2023-12-20T07:06:15;99200.22;;;-4.14;100.00
80927;BME280;70385;44.538;18.532;2023-12-20T07:08:42;99197.66;;;-4.16;100.00
80927;BME280;70385;44.538;18.532;2023-12-20T07:11:08;99198.66;;;-4.05;100.00
80927;BME280;70385;44.538;18.532;2023-12-20T07:13:38;99195.31;;;-3.98;100.00
80927;BME280;70385;44.538;18.532;2023-12-20T07:16:05;99187.72;;;-3.88;100.00
80927;BME280;70385;44.538;18.532;2023-12-20T07:18:33;99180.09;;;-3.85;100.00
80927;BME280;70385;44.538;18.532;2023-12-20T07:21:03;99187.88;;;-3.75;100.00
80927;BME280;70385;44.538;18.532;2023-12-20T07:23:29;99196.50;;;-3.65;100.00
80927;BME280;70385;44.538;18.532;2023-12-20T07:25:55;99184.66;;;-3.54;100.00
80927;BME280;70385;44.538;18.532;2023-12-20T07:28:24;99175.31;;;-3.47;100.00
80927;BME280;70385;44.538;18.532;2023-12-20T07:30:50;99166.00;;;-3.41;100.00
80927;BME280;70385;44.538;18.532;2023-12-20T07:33:16;99182.28;;;-3.29;100.00
80927;BME280;70385;44.538;18.532;2023-12-20T07:35:45;99178.91;;;-3.25;100.00
80927;BME280;70385;44.538;18.532;2023-12-20T07:38:12;99174.72;;;-3.17;100.00
80927;BME280;70385;44.538;18.532;2023-12-20T07:40:38;99171.31;;;-3.13;100.00
80927;BME280;70385;44.538;18.532;2023-12-20T07:43:06;99179.94;;;-3.03;100.00
80927;BME280;70385;44.538;18.532;2023-12-20T07:45:32;99174.84;;;-2.99;100.00
80927;BME280;70385;44.538;18.532;2023-12-20T07:47:59;99163.75;;;-2.93;100.00
80927;BME280;70385;44.538;18.532;2023-12-20T07:50:27;99159.50;;;-2.90;100.00
80927;BME280;70385;44.538;18.532;2023-12-20T07:52:54;99166.44;;;-2.77;100.00
80927;BME280;70385;44.538;18.532;2023-12-20T07:55:19;99165.63;;;-2.68;100.00
80927;BME280;70385;44.538;18.532;2023-12-20T07:57:46;99167.38;;;-2.61;100.00
80927;BME280;70385;44.538;18.532;2023-12-20T08:00:13;99169.94;;;-2.53;100.00
80927;BME280;70385;44.538;18.532;2023-12-20T08:02:39;99168.31;;;-2.42;100.00
80927;BME280;70385;44.538;18.532;2023-12-20T08:05:05;99169.22;;;-2.29;100.00
80927;BME280;70385;44.538;18.532;2023-12-20T08:07:31;99164.94;;;-2.30;100.00
80927;BME280;70385;44.538;18.532;2023-12-20T08:09:58;99165.81;;;-2.18;100.00
80927;BME280;70385;44.538;18.532;2023-12-20T08:12:24;99168.44;;;-2.11;100.00
80927;BME280;70385;44.538;18.532;2023-12-20T08:14:53;99158.19;;;-2.02;100.00
80927;BME280;70385;44.538;18.532;2023-12-20T08:17:22;99156.50;;;-1.88;100.00
80927;BME280;70385;44.538;18.532;2023-12-20T08:19:49;99149.66;;;-1.80;100.00
80927;BME280;70385;44.538;18.532;2023-12-20T08:22:16;99144.56;;;-1.68;100.00
80927;BME280;70385;44.538;18.532;2023-12-20T08:24:42;99144.56;;;-1.60;100.00
80927;BME280;70385;44.538;18.532;2023-12-20T08:27:09;99146.25;;;-1.41;100.00
80927;BME280;70385;44.538;18.532;2023-12-20T08:29:35;99151.41;;;-1.33;100.00
80927;BME280;70385;44.538;18.532;2023-12-20T08:32:01;99145.41;;;-1.20;100.00
80927;BME280;70385;44.538;18.532;2023-12-20T08:34:27;99142.81;;;-1.05;100.00
80927;BME280;70385;44.538;18.532;2023-12-20T08:36:54;99148.81;;;-0.95;100.00
80927;BME280;70385;44.538;18.532;2023-12-20T08:39:19;99146.22;;;-0.87;100.00
80927;BME280;70385;44.538;18.532;2023-12-20T08:41:45;99154.72;;;-0.70;100.00
80927;BME280;70385;44.538;18.532;2023-12-20T08:44:13;99146.13;;;-0.62;100.00
80927;BME280;70385;44.538;18.532;2023-12-20T08:46:38;99145.25;;;-0.53;100.00
80927;BME280;70385;44.538;18.532;2023-12-20T08:49:04;99130.63;;;-0.36;100.00
80927;BME280;70385;44.538;18.532;2023-12-20T08:51:30;99131.38;;;-0.21;100.00
80927;BME280;70385;44.538;18.532;2023-12-20T08:53:57;99135.63;;;-0.11;100.00
80927;BME280;70385;44.538;18.532;2023-12-20T08:56:23;99124.47;;;-0.07;100.00
80927;BME280;70385;44.538;18.532;2023-12-20T08:58:49;99124.31;;;0.14;100.00
80927;BME280;70385;44.538;18.532;2023-12-20T09:01:15;99125.06;;;0.32;100.00
80927;BME280;70385;44.538;18.532;2023-12-20T09:03:41;99113.03;;;0.34;100.00
80927;BME280;70385;44.538;18.532;2023-12-20T09:06:07;99106.97;;;0.44;100.00
80927;BME280;70385;44.538;18.532;2023-12-20T09:08:32;99112.00;;;0.59;100.00
80927;BME280;70385;44.538;18.532;2023-12-20T09:11:06;99110.94;;;0.75;100.00
80927;BME280;70385;44.538;18.532;2023-12-20T09:13:33;99107.31;;;0.95;100.00
80927;BME280;70385;44.538;18.532;2023-12-20T09:16:01;99104.63;;;1.08;100.00
80927;BME280;70385;44.538;18.532;2023-12-20T09:18:26;99100.97;;;1.28;100.00
80927;BME280;70385;44.538;18.532;2023-12-20T09:20:52;99089.66;;;1.41;100.00
80927;BME280;70385;44.538;18.532;2023-12-20T09:23:18;99092.34;;;1.30;100.00
80927;BME280;70385;44.538;18.532;2023-12-20T09:25:44;99086.94;;;1.50;100.00
80927;BME280;70385;44.538;18.532;2023-12-20T09:28:11;99080.50;;;1.83;100.00
80927;BME280;70385;44.538;18.532;2023-12-20T09:30:38;99076.66;;;2.08;100.00
80927;BME280;70385;44.538;18.532;2023-12-20T09:33:07;99058.38;;;2.24;100.00
80927;BME280;70385;44.538;18.532;2023-12-20T09:35:34;99052.81;;;2.47;100.00
80927;BME280;70385;44.538;18.532;2023-12-20T09:38:00;99059.19;;;2.77;100.00
80927;BME280;70385;44.538;18.532;2023-12-20T09:40:26;99053.88;;;2.84;100.00
80927;BME280;70385;44.538;18.532;2023-12-20T09:43:11;99044.75;;;3.11;100.00
80927;BME280;70385;44.538;18.532;2023-12-20T09:45:39;99042.19;;;3.11;100.00
80927;BME280;70385;44.538;18.532;2023-12-20T09:48:31;99026.84;;;3.44;100.00
80927;BME280;70385;44.538;18.532;2023-12-20T09:51:31;99024.94;;;3.90;100.00
80927;BME280;70385;44.538;18.532;2023-12-20T09:54:03;99019.84;;;4.23;100.00
80927;BME280;70385;44.538;18.532;2023-12-20T09:56:30;99020.13;;;4.46;100.00
80927;BME280;70385;44.538;18.532;2023-12-20T09:59:30;99017.38;;;4.85;100.00
80927;BME280;70385;44.538;18.532;2023-12-20T10:02:01;99010.47;;;5.15;100.00
80927;BME280;70385;44.538;18.532;2023-12-20T10:04:31;99009.28;;;5.27;100.00
80927;BME280;70385;44.538;18.532;2023-12-20T10:07:02;99002.34;;;5.57;100.00
80927;BME280;70385;44.538;18.532;2023-12-20T10:09:31;98999.91;;;5.80;100.00
80927;BME280;70385;44.538;18.532;2023-12-20T10:11:58;99002.34;;;5.85;100.00
80927;BME280;70385;44.538;18.532;2023-12-20T10:14:24;98988.41;;;6.15;100.00
80927;BME280;70385;44.538;18.532;2023-12-20T10:16:50;98994.31;;;6.20;100.00
80927;BME280;70385;44.538;18.532;2023-12-20T10:19:19;98992.41;;;6.25;97.55
80927;BME280;70385;44.538;18.532;2023-12-20T10:21:45;98988.28;;;6.45;97.08
80927;BME280;70385;44.538;18.532;2023-12-20T10:24:17;98985.22;;;6.83;96.01
80927;BME280;70385;44.538;18.532;2023-12-20T10:26:46;98966.91;;;6.86;94.84
80927;BME280;70385;44.538;18.532;2023-12-20T10:29:12;98968.50;;;7.14;93.19
80927;BME280;70385;44.538;18.532;2023-12-20T10:31:39;98968.16;;;7.23;91.77
80927;BME280;70385;44.538;18.532;2023-12-20T10:34:05;98961.47;;;7.39;91.00
80927;BME280;70385;44.538;18.532;2023-12-20T10:36:32;98962.34;;;7.61;91.29
80927;BME280;70385;44.538;18.532;2023-12-20T10:38:59;98968.91;;;7.48;89.53
80927;BME280;70385;44.538;18.532;2023-12-20T10:41:29;98957.97;;;7.84;88.96
80927;BME280;70385;44.538;18.532;2023-12-20T10:43:59;98966.59;;;8.06;87.94
80927;BME280;70385;44.538;18.532;2023-12-20T10:46:30;98954.91;;;8.16;87.53
80927;BME280;70385;44.538;18.532;2023-12-20T10:48:57;98952.00;;;8.44;85.64
80927;BME280;70385;44.538;18.532;2023-12-20T10:51:24;98953.50;;;8.30;84.91
80927;BME280;70385;44.538;18.532;2023-12-20T10:53:53;98939.94;;;8.62;84.16
80927;BME280;70385;44.538;18.532;2023-12-20T10:56:20;98934.41;;;8.70;83.36
80927;BME280;70385;44.538;18.532;2023-12-20T10:58:50;98943.97;;;8.90;81.55
80927;BME280;70385;44.538;18.532;2023-12-20T11:01:17;98936.44;;;9.21;80.94
80927;BME280;70385;44.538;18.532;2023-12-20T11:03:54;98936.50;;;9.20;79.67
80927;BME280;70385;44.538;18.532;2023-12-20T11:06:51;98929.59;;;9.19;78.36
80927;BME280;70385;44.538;18.532;2023-12-20T11:09:25;98936.09;;;9.48;78.71
80927;BME280;70385;44.538;18.532;2023-12-20T11:14:50;98936.41;;;9.59;77.14
80927;BME280;70385;44.538;18.532;2023-12-20T11:17:16;98932.25;;;9.55;76.65
80927;BME280;70385;44.538;18.532;2023-12-20T11:22:29;98936.47;;;9.76;74.17
80927;BME280;70385;44.538;18.532;2023-12-20T11:25:02;98932.63;;;9.83;74.72
80927;BME280;70385;44.538;18.532;2023-12-20T11:27:30;98933.25;;;9.88;74.18
80927;BME280;70385;44.538;18.532;2023-12-20T11:29:57;98934.91;;;9.72;74.02
80927;BME280;70385;44.538;18.532;2023-12-20T11:34:55;98937.09;;;9.98;76.94
80927;BME280;70385;44.538;18.532;2023-12-20T11:37:22;98932.88;;;9.96;77.75
80927;BME280;70385;44.538;18.532;2023-12-20T11:39:56;98941.53;;;9.79;80.08
80927;BME280;70385;44.538;18.532;2023-12-20T11:42:23;98941.53;;;9.79;80.32
80927;BME280;70385;44.538;18.532;2023-12-20T11:44:50;98944.72;;;9.86;78.40
80927;BME280;70385;44.538;18.532;2023-12-20T11:47:15;98942.25;;;10.00;76.48
80927;BME280;70385;44.538;18.532;2023-12-20T11:49:47;98940.97;;;10.09;75.57
80927;BME280;70385;44.538;18.532;2023-12-20T11:52:12;98928.50;;;9.96;76.43
80927;BME280;70385;44.538;18.532;2023-12-20T11:54:39;98934.09;;;10.25;75.73
80927;BME280;70385;44.538;18.532;2023-12-20T11:57:05;98932.66;;;10.18;75.49
80927;BME280;70385;44.538;18.532;2023-12-20T11:59:31;98927.41;;;10.00;76.88
80927;BME280;70385;44.538;18.532;2023-12-20T12:02:02;98934.19;;;9.87;76.94
80927;BME280;70385;44.538;18.532;2023-12-20T12:04:31;98930.81;;;9.85;77.83
80927;BME280;70385;44.538;18.532;2023-12-20T12:06:57;98926.97;;;9.92;77.74
80927;BME280;70385;44.538;18.532;2023-12-20T12:09:23;98928.25;;;9.84;77.76
80927;BME280;70385;44.538;18.532;2023-12-20T12:11:49;98934.91;;;9.72;77.89
80927;BME280;70385;44.538;18.532;2023-12-20T12:14:15;98922.09;;;9.49;77.95
80927;BME280;70385;44.538;18.532;2023-12-20T12:16:44;98921.13;;;9.32;78.80
80927;BME280;70385;44.538;18.532;2023-12-20T12:19:24;98926.50;;;9.29;79.32
80927;BME280;70385;44.538;18.532;2023-12-20T12:22:13;98927.50;;;9.27;80.73
80927;BME280;70385;44.538;18.532;2023-12-20T12:24:43;98924.50;;;9.53;81.57
80927;BME280;70385;44.538;18.532;2023-12-20T12:27:11;98920.25;;;9.69;82.14
80927;BME280;70385;44.538;18.532;2023-12-20T12:29:38;98913.03;;;9.74;82.66
80927;BME280;70385;44.538;18.532;2023-12-20T12:32:37;98914.97;;;9.88;79.50
80927;BME280;70385;44.538;18.532;2023-12-20T12:35:04;98931.53;;;9.70;78.57
80927;BME280;70385;44.538;18.532;2023-12-20T12:37:40;98924.63;;;9.69;77.93
80927;BME280;70385;44.538;18.532;2023-12-20T12:40:13;98928.44;;;9.24;79.52
80927;BME280;70385;44.538;18.532;2023-12-20T12:42:41;98928.53;;;9.23;80.63
80927;BME280;70385;44.538;18.532;2023-12-20T12:45:08;98926.06;;;9.01;82.28
80927;BME280;70385;44.538;18.532;2023-12-20T12:47:36;98931.28;;;9.01;82.97
80927;BME280;70385;44.538;18.532;2023-12-20T12:50:30;98931.78;;;9.09;83.02
80927;BME280;70385;44.538;18.532;2023-12-20T12:53:00;98922.53;;;9.21;82.69
80927;BME280;70385;44.538;18.532;2023-12-20T12:55:26;98936.34;;;9.23;83.05